TAF Text Data
IDs:
Format:
Raw Decoded Include METAR

Data at: 1722 UTC 20 May 2022

WIII 201700Z 27003KT 4000 BR FEW020 25/24 Q1010 NOSIG

TAF WIII 201700Z 2018/2124 21006KT 5000 HZ SCT020
  TEMPO 2018/2022 -RA
  BECMG 2023/2101 03010KT 8000 NSW